Sabinal, Texas
Current Conditions -  °F | °C
As of 12:35 AM on Wednesday 28 Jan 2015 (Local Time) from KUVA Reporting Station
Clear Clear  
Wind Chill: 49°   Ceiling: Unl
Heat Index: 49°   Visibility: 10mi
Dew Point: 40°   Wind: 0mph
Humidity: 70%   Direction: NA
Pressure: 30.16"   Gusts: NA
Location:  29.32°N, 99.47°W
Report Text: KUVA 280635Z AUTO 00000KT 10SM CLR 10/04 A3016 RMK AO2 T00950042
Loading
Personal Weather Stations






























Interactive Weather Map New forecast layout! Learn more

10-Day Weather Forecast

Advertisements
Track Severe Weather on mobile